createdAt,value
2019-05-17T00:00:07.438Z,12.43
2019-05-17T00:02:38.685Z,11.93
2019-05-17T00:05:11.755Z,11.53
2019-05-17T00:07:40.939Z,11.20
2019-05-17T00:10:11.741Z,10.87
2019-05-17T00:12:43.190Z,9.67
2019-05-17T00:15:16.946Z,9.47
2019-05-17T00:17:47.430Z,9.60
2019-05-17T00:20:17.609Z,9.73
2019-05-17T00:22:50.156Z,9.67
2019-05-17T00:25:19.647Z,10.13
2019-05-17T00:27:48.905Z,9.67
2019-05-17T00:30:19.153Z,9.33
2019-05-17T00:32:49.647Z,9.13
2019-05-17T00:35:19.420Z,9.47
2019-05-17T00:37:53.308Z,9.40
2019-05-17T00:40:22.820Z,8.40
2019-05-17T00:42:52.809Z,8.87
2019-05-17T00:45:22.881Z,8.43
2019-05-17T00:47:57.122Z,8.90
2019-05-17T00:50:27.612Z,8.00
2019-05-17T00:52:57.204Z,8.50
2019-05-17T00:55:26.942Z,8.70
2019-05-17T00:57:56.901Z,8.67
2019-05-17T01:00:27.965Z,8.80
2019-05-17T01:02:59.083Z,9.67
2019-05-17T01:05:28.573Z,9.10
2019-05-17T01:07:59.431Z,9.33
2019-05-17T01:10:31.007Z,8.47
2019-05-17T01:13:00.691Z,9.70
2019-05-17T01:15:32.709Z,9.83
2019-05-17T01:18:02.957Z,9.70
2019-05-17T01:20:33.020Z,9.43
2019-05-17T01:23:03.266Z,9.40
2019-05-17T01:25:36.709Z,9.77
2019-05-17T01:28:07.514Z,9.87
2019-05-17T01:30:37.749Z,9.90
2019-05-17T01:33:07.012Z,10.50
2019-05-17T01:35:37.481Z,10.03
2019-05-17T01:38:07.970Z,9.27
2019-05-17T01:40:39.233Z,9.60
2019-05-17T01:43:09.164Z,9.13
2019-05-17T01:45:38.636Z,9.63
2019-05-17T01:48:10.341Z,9.27
2019-05-17T01:50:39.806Z,9.50
2019-05-17T01:53:09.250Z,10.07
2019-05-17T01:55:38.689Z,9.83
2019-05-17T01:58:07.858Z,10.50
2019-05-17T02:00:37.769Z,10.00
2019-05-17T02:03:09.773Z,9.30
2019-05-17T02:05:39.539Z,10.33
2019-05-17T02:08:09.474Z,9.93
2019-05-17T02:10:39.473Z,10.17
2019-05-17T02:13:09.235Z,10.10
2019-05-17T02:15:38.966Z,9.50
2019-05-17T02:18:08.638Z,9.60
2019-05-17T02:20:40.012Z,9.67
2019-05-17T02:23:09.606Z,9.43
2019-05-17T02:25:38.767Z,10.13
2019-05-17T02:28:08.573Z,9.40
2019-05-17T02:30:44.113Z,9.97
2019-05-17T02:33:15.997Z,9.63
2019-05-17T02:35:45.979Z,9.57
2019-05-17T02:38:15.512Z,9.40
2019-05-17T02:40:45.247Z,10.20
2019-05-17T02:43:14.852Z,10.17
2019-05-17T02:45:45.324Z,9.73
2019-05-17T02:48:14.783Z,10.20
2019-05-17T02:50:48.057Z,9.93
2019-05-17T02:53:15.960Z,9.53
2019-05-17T02:55:47.440Z,9.33
2019-05-17T02:58:16.459Z,9.80
2019-05-17T03:00:46.712Z,10.40
2019-05-17T03:03:16.518Z,9.83
2019-05-17T03:05:46.023Z,9.57
2019-05-17T03:08:18.194Z,9.90
2019-05-17T03:10:48.260Z,9.73
2019-05-17T03:13:23.413Z,9.80
2019-05-17T03:15:55.030Z,9.37
2019-05-17T03:18:26.017Z,10.60
2019-05-17T03:20:55.538Z,10.20
2019-05-17T03:23:26.403Z,10.07
2019-05-17T03:26:04.011Z,10.37
2019-05-17T03:28:34.328Z,9.53
2019-05-17T03:31:08.131Z,9.87
2019-05-17T03:33:37.051Z,9.67
2019-05-17T03:36:07.843Z,9.73
2019-05-17T03:38:38.111Z,9.53
2019-05-17T03:41:18.755Z,10.00
2019-05-17T03:43:44.103Z,10.77
2019-05-17T03:46:22.940Z,10.60
2019-05-17T03:48:53.234Z,9.43
2019-05-17T03:51:23.573Z,10.07
2019-05-17T03:53:53.425Z,10.67
2019-05-17T03:56:23.396Z,11.53
2019-05-17T03:58:53.457Z,10.83
2019-05-17T04:01:24.761Z,10.73
2019-05-17T04:03:55.195Z,10.30
2019-05-17T04:06:25.649Z,11.03
2019-05-17T04:08:55.381Z,11.73
2019-05-17T04:11:31.367Z,11.27
2019-05-17T04:13:57.568Z,10.43
2019-05-17T04:16:27.559Z,10.60
2019-05-17T04:19:02.822Z,11.00
2019-05-17T04:21:34.391Z,11.43
2019-05-17T04:24:04.846Z,10.30
2019-05-17T04:26:35.487Z,11.17
2019-05-17T04:29:07.561Z,10.87
2019-05-17T04:31:37.834Z,10.87
2019-05-17T04:34:13.562Z,11.03
2019-05-17T04:36:43.593Z,11.03
2019-05-17T04:39:13.487Z,11.77
2019-05-17T04:41:49.357Z,11.17
2019-05-17T04:44:18.848Z,11.50
2019-05-17T04:46:53.378Z,11.53
2019-05-17T04:49:24.358Z,11.60
2019-05-17T04:51:57.489Z,11.43
2019-05-17T04:54:33.093Z,11.23
2019-05-17T04:57:06.148Z,11.63
2019-05-17T04:59:44.312Z,11.57
2019-05-17T05:02:15.170Z,11.33
2019-05-17T05:04:45.403Z,10.80
2019-05-17T05:07:14.588Z,11.27
2019-05-17T05:09:45.377Z,11.73
2019-05-17T05:12:14.818Z,11.57
2019-05-17T05:14:44.215Z,11.10
2019-05-17T05:17:14.034Z,11.70
2019-05-17T05:19:44.847Z,11.83
2019-05-17T05:22:17.552Z,11.43
2019-05-17T05:24:46.600Z,11.87
2019-05-17T05:27:16.031Z,12.30
2019-05-17T05:29:45.419Z,11.73
2019-05-17T05:32:15.115Z,11.90
2019-05-17T05:34:46.429Z,12.20
2019-05-17T05:37:15.735Z,12.33
2019-05-17T05:39:45.946Z,11.80
2019-05-17T05:42:16.369Z,11.77
2019-05-17T05:44:45.554Z,12.40
2019-05-17T05:47:17.711Z,12.10
2019-05-17T05:49:52.069Z,12.57
2019-05-17T05:52:22.166Z,12.17
2019-05-17T05:54:52.059Z,12.27
2019-05-17T05:57:21.978Z,12.67
2019-05-17T05:59:52.962Z,12.13
2019-05-17T06:02:22.452Z,12.37
2019-05-17T06:04:53.047Z,11.77
2019-05-17T06:07:24.147Z,12.00
2019-05-17T06:09:53.339Z,13.70
2019-05-17T06:12:27.695Z,12.67
2019-05-17T06:14:54.342Z,12.97
2019-05-17T06:17:24.144Z,17.00
2019-05-17T06:19:53.358Z,14.50
2019-05-17T06:22:22.536Z,15.67
2019-05-17T06:24:52.117Z,32.53
2019-05-17T06:27:21.600Z,40.83
2019-05-17T06:29:51.528Z,33.73
2019-05-17T06:32:23.091Z,22.30
2019-05-17T06:34:52.611Z,29.43
2019-05-17T06:37:22.778Z,37.77
2019-05-17T06:39:52.758Z,17.27
2019-05-17T06:42:37.009Z,23.27
2019-05-17T06:44:52.808Z,15.47
2019-05-17T06:47:22.527Z,17.90
2019-05-17T06:49:53.487Z,16.27
2019-05-17T06:52:24.126Z,24.23
2019-05-17T06:55:06.095Z,14.77
2019-05-17T06:57:35.349Z,14.40
2019-05-17T07:00:09.260Z,29.30
2019-05-17T07:02:40.092Z,31.97
2019-05-17T07:05:25.314Z,26.57
2019-05-17T07:07:54.832Z,39.07
2019-05-17T07:10:26.174Z,18.10
2019-05-17T07:13:02.233Z,17.37
2019-05-17T07:15:47.436Z,14.67
2019-05-17T07:18:16.155Z,14.70
2019-05-17T07:20:45.975Z,18.00
2019-05-17T07:23:17.047Z,13.03
2019-05-17T07:25:47.003Z,13.47
2019-05-17T07:28:16.195Z,14.40
2019-05-17T07:30:50.389Z,12.90
2019-05-17T07:33:20.338Z,12.30
2019-05-17T07:35:52.669Z,13.03
2019-05-17T07:38:21.845Z,12.40
2019-05-17T07:40:51.047Z,11.63
2019-05-17T07:43:21.165Z,12.13
2019-05-17T07:45:50.413Z,12.00
2019-05-17T07:48:20.189Z,12.50
2019-05-17T07:50:52.618Z,11.60
2019-05-17T07:53:22.596Z,10.93
2019-05-17T07:55:52.581Z,12.00
2019-05-17T07:58:23.594Z,11.87
2019-05-17T08:00:52.804Z,11.60
2019-05-17T08:03:24.840Z,11.33
2019-05-17T08:05:53.447Z,11.47
2019-05-17T08:08:22.628Z,10.60
2019-05-17T08:10:51.999Z,10.47
2019-05-17T08:13:30.097Z,11.00
2019-05-17T08:15:52.081Z,11.23
2019-05-17T08:18:21.252Z,11.63
2019-05-17T08:20:50.749Z,10.83
2019-05-17T08:23:20.386Z,10.83
2019-05-17T08:25:55.595Z,10.23
2019-05-17T08:28:21.626Z,10.23
2019-05-17T08:30:50.941Z,35.93
2019-05-17T08:33:20.366Z,14.87
2019-05-17T08:35:49.620Z,10.87
2019-05-17T08:38:19.848Z,11.17
2019-05-17T08:40:50.931Z,10.93
2019-05-17T08:43:21.440Z,12.27
2019-05-17T08:45:51.849Z,11.93
2019-05-17T08:48:21.582Z,13.03
2019-05-17T08:50:52.457Z,13.37
2019-05-17T08:53:21.609Z,20.33
2019-05-17T08:55:50.768Z,16.07
2019-05-17T08:58:21.603Z,14.63
2019-05-17T09:00:51.131Z,12.27
2019-05-17T09:03:20.659Z,14.03
2019-05-17T09:05:52.498Z,14.20
2019-05-17T09:08:21.073Z,14.63
2019-05-17T09:10:50.620Z,13.20
2019-05-17T09:13:20.567Z,12.13
2019-05-17T09:15:50.517Z,13.73
2019-05-17T09:18:20.845Z,15.03
2019-05-17T09:20:50.048Z,13.97
2019-05-17T09:23:19.803Z,13.33
2019-05-17T09:25:50.160Z,13.97
2019-05-17T09:28:20.512Z,15.80
2019-05-17T09:30:50.706Z,22.80
2019-05-17T09:33:20.358Z,80.70
2019-05-17T09:35:50.122Z,29.87
2019-05-17T09:38:20.546Z,16.53
2019-05-17T09:40:50.771Z,17.00
2019-05-17T09:43:20.802Z,16.43
2019-05-17T09:45:50.827Z,15.17
2019-05-17T09:48:20.539Z,16.00
2019-05-17T09:50:50.512Z,17.30
2019-05-17T09:53:21.560Z,16.37
2019-05-17T09:55:51.071Z,16.97
2019-05-17T09:58:21.609Z,14.87
2019-05-17T10:00:50.933Z,15.77
2019-05-17T10:03:23.767Z,14.67
2019-05-17T10:05:51.817Z,14.47
2019-05-17T10:08:21.022Z,14.50
2019-05-17T10:11:04.972Z,15.10
2019-05-17T10:13:21.727Z,14.00
2019-05-17T10:15:51.927Z,14.43
2019-05-17T10:18:22.474Z,13.10
2019-05-17T10:20:52.586Z,14.90
2019-05-17T10:23:21.781Z,13.87
2019-05-17T10:25:51.237Z,15.53
2019-05-17T10:28:20.901Z,25.00
2019-05-17T10:30:52.473Z,15.50
2019-05-17T10:33:22.042Z,21.03
2019-05-17T10:35:52.511Z,11.10
2019-05-17T10:38:22.090Z,31.87
2019-05-17T10:40:52.067Z,12.73
2019-05-17T10:43:21.958Z,13.23
2019-05-17T10:45:52.463Z,11.90
2019-05-17T10:48:22.711Z,10.67
2019-05-17T10:50:52.232Z,20.27
2019-05-17T10:53:22.060Z,13.87
2019-05-17T10:55:53.371Z,11.07
2019-05-17T10:58:26.693Z,10.77
2019-05-17T11:00:55.713Z,10.47
2019-05-17T11:03:25.134Z,10.43
2019-05-17T11:05:55.631Z,10.00
2019-05-17T11:08:25.886Z,10.17
2019-05-17T11:10:55.655Z,10.10
2019-05-17T11:13:25.142Z,9.87
2019-05-17T11:15:56.085Z,10.03
2019-05-17T11:18:25.682Z,9.77
2019-05-17T11:20:55.054Z,10.33
2019-05-17T11:23:24.194Z,9.90
2019-05-17T11:25:53.509Z,9.07
2019-05-17T11:28:23.693Z,8.40
2019-05-17T11:30:52.900Z,9.00
2019-05-17T11:33:23.193Z,8.87
2019-05-17T11:35:52.728Z,8.57
2019-05-17T11:38:22.699Z,6.50
2019-05-17T11:40:52.277Z,6.53
2019-05-17T11:43:21.449Z,6.20
2019-05-17T11:45:52.187Z,6.13
2019-05-17T11:48:22.504Z,6.20
2019-05-17T11:50:55.886Z,6.30
2019-05-17T11:53:25.826Z,6.43
2019-05-17T11:55:57.401Z,7.17
2019-05-17T11:58:26.881Z,6.77
2019-05-17T12:00:56.879Z,6.93
2019-05-17T12:03:26.964Z,5.87
2019-05-17T12:05:58.026Z,6.27
2019-05-17T12:08:29.896Z,5.73
2019-05-17T12:11:03.038Z,6.63
2019-05-17T12:13:33.373Z,5.33
2019-05-17T12:16:04.777Z,5.13
2019-05-17T12:18:33.905Z,5.60
2019-05-17T12:21:04.225Z,6.57
2019-05-17T12:23:33.956Z,5.63
2019-05-17T12:26:05.779Z,5.40
2019-05-17T12:28:35.311Z,5.53
2019-05-17T12:31:06.549Z,5.37
2019-05-17T12:33:36.475Z,5.40
2019-05-17T12:36:05.978Z,5.30
2019-05-17T12:38:35.183Z,5.33
2019-05-17T12:41:05.569Z,5.00
2019-05-17T12:43:35.333Z,4.80
2019-05-17T12:46:07.094Z,3.97
2019-05-17T12:48:36.959Z,4.07
2019-05-17T12:51:06.127Z,3.70
2019-05-17T12:53:35.834Z,3.53
2019-05-17T12:56:07.878Z,3.37
2019-05-17T12:58:37.378Z,3.93
2019-05-17T13:01:10.969Z,4.27
2019-05-17T13:03:40.551Z,4.40
2019-05-17T13:06:09.919Z,4.30
2019-05-17T13:08:43.242Z,3.60
2019-05-17T13:11:12.526Z,3.80
2019-05-17T13:13:42.303Z,4.07
2019-05-17T13:16:18.025Z,3.60
2019-05-17T13:18:49.189Z,3.73
2019-05-17T13:21:18.640Z,3.97
2019-05-17T13:23:48.362Z,3.80
2019-05-17T13:26:17.962Z,4.10
2019-05-17T13:28:47.721Z,4.47
2019-05-17T13:31:17.958Z,3.77
2019-05-17T13:33:47.713Z,4.40
2019-05-17T13:36:16.903Z,4.40
2019-05-17T13:38:47.015Z,3.53
2019-05-17T13:41:16.177Z,3.87
2019-05-17T13:43:45.708Z,3.53
2019-05-17T13:46:15.883Z,3.23
2019-05-17T13:48:45.976Z,3.70
2019-05-17T13:51:17.229Z,3.97
2019-05-17T13:53:46.977Z,3.67
2019-05-17T13:56:17.370Z,3.50
2019-05-17T13:58:48.624Z,4.07
2019-05-17T14:01:17.905Z,3.30
2019-05-17T14:03:48.146Z,3.70
2019-05-17T14:06:18.118Z,3.60
2019-05-17T14:08:47.312Z,3.50
2019-05-17T14:11:17.290Z,3.40
2019-05-17T14:13:46.752Z,3.60
2019-05-17T14:16:17.432Z,4.03
2019-05-17T14:18:53.425Z,3.40
2019-05-17T14:21:22.869Z,3.73
2019-05-17T14:23:52.878Z,4.20
2019-05-17T14:26:29.517Z,3.50
2019-05-17T14:28:59.361Z,3.53
2019-05-17T14:31:29.999Z,3.47
2019-05-17T14:34:02.036Z,3.20
2019-05-17T14:36:44.005Z,4.13
2019-05-17T14:39:37.732Z,4.40
2019-05-17T14:42:08.553Z,4.00
2019-05-17T14:44:38.048Z,4.10
2019-05-17T14:47:30.647Z,5.13
2019-05-17T14:50:02.681Z,4.30
2019-05-17T14:52:32.487Z,4.60
2019-05-17T14:55:02.179Z,4.60
2019-05-17T14:57:31.755Z,4.07
2019-05-17T15:00:01.133Z,4.47
2019-05-17T15:02:30.337Z,4.37
2019-05-17T15:04:59.540Z,3.83
2019-05-17T15:07:28.701Z,3.90
2019-05-17T15:09:57.892Z,3.80
2019-05-17T15:12:28.895Z,3.63
2019-05-17T15:14:59.186Z,3.40
2019-05-17T15:17:28.341Z,3.57
2019-05-17T15:19:57.549Z,3.13
2019-05-17T15:22:45.332Z,3.60
2019-05-17T15:25:15.541Z,6.77
2019-05-17T15:27:49.571Z,3.20
2019-05-17T15:30:21.995Z,3.30
2019-05-17T15:32:51.243Z,3.10
2019-05-17T15:35:29.384Z,3.13
2019-05-17T15:37:59.025Z,3.17
2019-05-17T15:40:32.307Z,3.30
2019-05-17T15:43:03.980Z,3.03
2019-05-17T15:45:34.948Z,3.03
2019-05-17T15:48:04.790Z,3.20
2019-05-17T15:50:34.276Z,2.60
2019-05-17T15:53:04.078Z,2.90
2019-05-17T15:55:33.655Z,2.87
2019-05-17T15:58:04.874Z,3.40
2019-05-17T16:00:34.253Z,3.67
2019-05-17T16:03:03.723Z,3.10
2019-05-17T16:05:33.756Z,2.80
2019-05-17T16:08:03.240Z,2.60
2019-05-17T16:10:32.512Z,2.87
2019-05-17T16:13:03.436Z,2.77
2019-05-17T16:15:32.822Z,2.63
2019-05-17T16:18:02.821Z,3.00
2019-05-17T16:20:32.034Z,2.53
2019-05-17T16:23:01.923Z,2.60
2019-05-17T16:25:46.868Z,2.33
2019-05-17T16:28:17.020Z,2.70
2019-05-17T16:30:46.206Z,2.33
2019-05-17T16:33:15.687Z,2.20
2019-05-17T16:35:47.085Z,2.60
2019-05-17T16:38:16.733Z,2.37
2019-05-17T16:40:49.025Z,2.57
2019-05-17T16:43:22.931Z,2.67
2019-05-17T16:45:53.030Z,2.80
2019-05-17T16:48:24.146Z,2.47
2019-05-17T16:50:53.947Z,2.60
2019-05-17T16:53:27.207Z,2.27
2019-05-17T16:55:56.774Z,2.30
2019-05-17T16:58:25.987Z,2.30
2019-05-17T17:00:55.167Z,1.93
2019-05-17T17:03:24.359Z,2.10
2019-05-17T17:05:55.201Z,2.10
2019-05-17T17:08:24.394Z,2.10
2019-05-17T17:10:53.705Z,2.00
2019-05-17T17:13:32.651Z,2.00
2019-05-17T17:15:53.771Z,2.10
2019-05-17T17:18:23.584Z,2.10
2019-05-17T17:20:53.127Z,2.20
2019-05-17T17:23:22.321Z,2.10
2019-05-17T17:25:51.501Z,2.07
2019-05-17T17:28:22.603Z,2.20
2019-05-17T17:30:51.634Z,1.80
2019-05-17T17:33:20.828Z,1.60
2019-05-17T17:35:50.106Z,1.67
2019-05-17T17:38:21.120Z,1.83
2019-05-17T17:40:51.715Z,1.90
2019-05-17T17:43:21.281Z,1.80
2019-05-17T17:45:51.010Z,1.77
2019-05-17T17:48:20.530Z,1.73
2019-05-17T17:50:53.905Z,1.70
2019-05-17T17:53:26.711Z,1.80
2019-05-17T17:55:57.195Z,2.10
2019-05-17T17:58:29.919Z,1.90
2019-05-17T18:01:02.097Z,2.10
2019-05-17T18:03:31.308Z,1.90
2019-05-17T18:06:00.509Z,2.10
2019-05-17T18:08:29.695Z,2.00
2019-05-17T18:10:58.897Z,1.90
2019-05-17T18:13:28.082Z,2.20
2019-05-17T18:15:57.289Z,1.97
2019-05-17T18:18:26.451Z,2.23
2019-05-17T18:20:56.029Z,1.97
2019-05-17T18:23:25.204Z,2.30
2019-05-17T18:25:54.511Z,1.90
2019-05-17T18:28:24.793Z,2.13
2019-05-17T18:30:55.088Z,2.23
2019-05-17T18:33:24.258Z,2.30
2019-05-17T18:35:53.462Z,2.40
2019-05-17T18:38:25.089Z,3.30
2019-05-17T18:40:54.271Z,2.90
2019-05-17T18:43:23.434Z,2.23
2019-05-17T18:45:53.439Z,2.67
2019-05-17T18:48:22.598Z,2.37
2019-05-17T18:50:51.804Z,2.40
2019-05-17T18:53:23.145Z,2.37
2019-05-17T18:55:52.623Z,2.20
2019-05-17T18:58:22.081Z,2.40
2019-05-17T19:00:53.848Z,2.30
2019-05-17T19:03:23.738Z,2.17
2019-05-17T19:05:54.069Z,2.10
2019-05-17T19:08:23.741Z,2.00
2019-05-17T19:10:53.480Z,2.33
2019-05-17T19:13:22.654Z,2.50
2019-05-17T19:15:54.611Z,2.40
2019-05-17T19:18:23.998Z,2.57
2019-05-17T19:20:56.281Z,2.20
2019-05-17T19:23:26.234Z,2.40
2019-05-17T19:25:56.824Z,2.60
2019-05-17T19:28:26.034Z,2.40
2019-05-17T19:30:55.166Z,2.10
2019-05-17T19:33:24.332Z,2.20
2019-05-17T19:35:53.518Z,2.57
2019-05-17T19:38:22.667Z,2.77
2019-05-17T19:40:52.187Z,2.57
2019-05-17T19:43:22.973Z,2.57
2019-05-17T19:45:52.230Z,2.87
2019-05-17T19:48:21.671Z,2.83
2019-05-17T19:50:51.241Z,2.90
2019-05-17T19:53:20.909Z,3.40
2019-05-17T19:55:52.524Z,3.30
2019-05-17T19:58:21.973Z,3.60
2019-05-17T20:00:54.848Z,3.80
2019-05-17T20:03:26.292Z,3.53
2019-05-17T20:05:56.683Z,3.57
2019-05-17T20:08:26.489Z,4.13
2019-05-17T20:10:56.463Z,5.00
2019-05-17T20:13:25.649Z,4.87
2019-05-17T20:15:55.422Z,4.90
2019-05-17T20:18:24.811Z,5.20
2019-05-17T20:20:54.270Z,5.30
2019-05-17T20:23:23.438Z,5.63
2019-05-17T20:25:52.623Z,5.20
2019-05-17T20:28:22.187Z,5.93
2019-05-17T20:30:51.325Z,6.60
2019-05-17T20:33:21.743Z,5.80
2019-05-17T20:35:50.897Z,5.70
2019-05-17T20:38:20.439Z,6.23
2019-05-17T20:40:49.610Z,5.90
2019-05-17T20:43:19.054Z,6.07
2019-05-17T20:45:50.505Z,6.47
2019-05-17T20:48:20.441Z,6.37
2019-05-17T20:50:49.614Z,7.27
2019-05-17T20:53:20.073Z,7.30
2019-05-17T20:55:50.403Z,7.40
2019-05-17T20:58:19.678Z,6.60
2019-05-17T21:00:49.353Z,7.27
2019-05-17T21:03:18.579Z,7.50
2019-05-17T21:05:48.312Z,7.43
2019-05-17T21:08:19.293Z,7.43
2019-05-17T21:10:48.781Z,7.30
2019-05-17T21:13:18.804Z,7.50
2019-05-17T21:15:48.427Z,7.90
2019-05-17T21:18:17.712Z,7.73
2019-05-17T21:20:49.003Z,8.77
2019-05-17T21:23:19.537Z,7.97
2019-05-17T21:25:48.690Z,7.97
2019-05-17T21:28:17.992Z,8.33
2019-05-17T21:30:47.704Z,8.70
2019-05-17T21:33:16.865Z,8.23
2019-05-17T21:35:46.029Z,8.43
2019-05-17T21:38:15.944Z,8.60
2019-05-17T21:40:46.221Z,8.63
2019-05-17T21:43:15.527Z,8.67
2019-05-17T21:45:45.591Z,8.30
2019-05-17T21:48:15.109Z,8.20
2019-05-17T21:50:44.279Z,8.33
2019-05-17T21:53:15.511Z,8.97
2019-05-17T21:55:45.347Z,8.90
2019-05-17T21:58:20.238Z,9.20
2019-05-17T22:01:16.562Z,8.70
2019-05-17T22:03:45.893Z,9.30
2019-05-17T22:06:27.236Z,8.67
2019-05-17T22:08:56.436Z,8.83
2019-05-17T22:11:26.191Z,8.07
2019-05-17T22:13:55.457Z,8.47
2019-05-17T22:16:25.005Z,8.40
2019-05-17T22:18:56.374Z,8.90
2019-05-17T22:21:26.481Z,8.67
2019-05-17T22:23:55.710Z,8.97
2019-05-17T22:26:25.135Z,9.50
2019-05-17T22:28:54.336Z,8.80
2019-05-17T22:31:23.508Z,9.43
2019-05-17T22:33:53.055Z,9.63
2019-05-17T22:36:22.243Z,9.13
2019-05-17T22:38:51.424Z,8.83
2019-05-17T22:41:21.753Z,9.43
2019-05-17T22:43:51.250Z,8.47
2019-05-17T22:46:35.085Z,8.93
2019-05-17T22:48:52.777Z,8.97
2019-05-17T22:51:21.973Z,9.00
2019-05-17T22:53:51.547Z,8.17
2019-05-17T22:56:20.844Z,9.07
2019-05-17T22:58:51.176Z,8.43
2019-05-17T23:01:22.079Z,8.70
2019-05-17T23:03:52.210Z,9.10
2019-05-17T23:06:21.391Z,8.50
2019-05-17T23:08:51.826Z,8.93
2019-05-17T23:11:20.987Z,8.83
2019-05-17T23:13:51.312Z,9.27
2019-05-17T23:16:20.862Z,8.40
2019-05-17T23:19:09.023Z,9.43
2019-05-17T23:21:38.310Z,8.80
2019-05-17T23:24:07.918Z,9.60
2019-05-17T23:26:38.286Z,9.87
2019-05-17T23:29:07.432Z,8.93
2019-05-17T23:31:36.643Z,9.47
2019-05-17T23:34:05.810Z,9.43
2019-05-17T23:36:35.324Z,9.90
2019-05-17T23:39:05.364Z,9.40
2019-05-17T23:41:37.322Z,9.93
2019-05-17T23:44:06.492Z,9.13
2019-05-17T23:46:35.688Z,8.77
2019-05-17T23:49:05.164Z,9.83
2019-05-17T23:51:35.556Z,9.43
2019-05-17T23:54:05.020Z,9.60
2019-05-17T23:56:34.203Z,9.93
2019-05-17T23:59:04.400Z,9.60
